sensor_id;sensor_type;location;lat;lon;timestamp;temperature;humidity
7790;DHT22;3939;57.130;-2.086;2022-11-15T00:01:53;11.90;99.90
7790;DHT22;3939;57.130;-2.086;2022-11-15T00:04:19;11.90;99.90
7790;DHT22;3939;57.130;-2.086;2022-11-15T00:06:45;11.90;99.90
7790;DHT22;3939;57.130;-2.086;2022-11-15T00:09:11;12.00;99.90
7790;DHT22;3939;57.130;-2.086;2022-11-15T00:11:36;12.00;99.90
7790;DHT22;3939;57.130;-2.086;2022-11-15T00:14:02;12.00;99.90
7790;DHT22;3939;57.130;-2.086;2022-11-15T00:16:28;12.00;99.90
7790;DHT22;3939;57.130;-2.086;2022-11-15T00:18:54;11.90;99.90
7790;DHT22;3939;57.130;-2.086;2022-11-15T00:21:20;12.00;99.90
7790;DHT22;3939;57.130;-2.086;2022-11-15T00:23:45;12.00;99.90
7790;DHT22;3939;57.130;-2.086;2022-11-15T00:26:13;12.10;99.90
7790;DHT22;3939;57.130;-2.086;2022-11-15T00:28:40;12.10;99.90
7790;DHT22;3939;57.130;-2.086;2022-11-15T00:31:08;12.10;99.90
7790;DHT22;3939;57.130;-2.086;2022-11-15T00:33:34;12.10;99.90
7790;DHT22;3939;57.130;-2.086;2022-11-15T00:36:08;12.20;99.90
7790;DHT22;3939;57.130;-2.086;2022-11-15T00:38:35;12.20;99.90
7790;DHT22;3939;57.130;-2.086;2022-11-15T00:41:03;12.20;99.90
7790;DHT22;3939;57.130;-2.086;2022-11-15T00:43:29;12.20;99.90
7790;DHT22;3939;57.130;-2.086;2022-11-15T00:45:55;12.30;99.90
7790;DHT22;3939;57.130;-2.086;2022-11-15T00:48:21;12.30;99.90
7790;DHT22;3939;57.130;-2.086;2022-11-15T00:50:46;12.30;99.90
7790;DHT22;3939;57.130;-2.086;2022-11-15T00:53:12;12.30;99.90
7790;DHT22;3939;57.130;-2.086;2022-11-15T00:55:38;12.30;99.90
7790;DHT22;3939;57.130;-2.086;2022-11-15T00:58:03;12.40;99.90
7790;DHT22;3939;57.130;-2.086;2022-11-15T01:00:29;12.40;99.90
7790;DHT22;3939;57.130;-2.086;2022-11-15T01:02:55;12.40;99.90
7790;DHT22;3939;57.130;-2.086;2022-11-15T01:05:20;12.50;99.90
7790;DHT22;3939;57.130;-2.086;2022-11-15T01:07:46;12.50;99.90
7790;DHT22;3939;57.130;-2.086;2022-11-15T01:10:12;12.50;99.90
7790;DHT22;3939;57.130;-2.086;2022-11-15T01:12:38;12.50;99.90
7790;DHT22;3939;57.130;-2.086;2022-11-15T01:15:04;12.50;99.90
7790;DHT22;3939;57.130;-2.086;2022-11-15T01:17:30;12.60;99.90
7790;DHT22;3939;57.130;-2.086;2022-11-15T01:19:56;12.60;99.90
7790;DHT22;3939;57.130;-2.086;2022-11-15T01:22:22;12.60;99.90
7790;DHT22;3939;57.130;-2.086;2022-11-15T01:24:51;12.60;99.90
7790;DHT22;3939;57.130;-2.086;2022-11-15T01:27:16;12.60;99.90
7790;DHT22;3939;57.130;-2.086;2022-11-15T01:29:42;12.60;99.90
7790;DHT22;3939;57.130;-2.086;2022-11-15T01:32:08;12.60;99.90
7790;DHT22;3939;57.130;-2.086;2022-11-15T01:34:33;12.60;99.90
7790;DHT22;3939;57.130;-2.086;2022-11-15T01:36:59;12.60;99.90
7790;DHT22;3939;57.130;-2.086;2022-11-15T01:39:25;12.60;99.90
7790;DHT22;3939;57.130;-2.086;2022-11-15T01:41:51;12.60;99.90
7790;DHT22;3939;57.130;-2.086;2022-11-15T01:47:06;12.70;99.90
7790;DHT22;3939;57.130;-2.086;2022-11-15T01:49:35;12.70;99.90
7790;DHT22;3939;57.130;-2.086;2022-11-15T01:52:04;12.80;99.90
7790;DHT22;3939;57.130;-2.086;2022-11-15T01:54:31;12.80;99.90
7790;DHT22;3939;57.130;-2.086;2022-11-15T01:57:01;12.80;99.90
7790;DHT22;3939;57.130;-2.086;2022-11-15T01:59:28;12.80;99.90
7790;DHT22;3939;57.130;-2.086;2022-11-15T02:01:54;12.70;99.90
7790;DHT22;3939;57.130;-2.086;2022-11-15T02:04:28;12.70;99.90
7790;DHT22;3939;57.130;-2.086;2022-11-15T02:06:55;12.70;99.90
7790;DHT22;3939;57.130;-2.086;2022-11-15T02:09:21;12.70;99.90
7790;DHT22;3939;57.130;-2.086;2022-11-15T02:11:47;12.70;99.90
7790;DHT22;3939;57.130;-2.086;2022-11-15T02:14:15;12.70;99.90
7790;DHT22;3939;57.130;-2.086;2022-11-15T02:22:27;12.60;99.90
7790;DHT22;3939;57.130;-2.086;2022-11-15T02:27:33;12.60;99.90
7790;DHT22;3939;57.130;-2.086;2022-11-15T02:32:55;12.60;99.90
7790;DHT22;3939;57.130;-2.086;2022-11-15T02:36:30;12.50;99.90
7790;DHT22;3939;57.130;-2.086;2022-11-15T02:39:00;12.50;99.90
7790;DHT22;3939;57.130;-2.086;2022-11-15T02:41:40;12.60;99.90
7790;DHT22;3939;57.130;-2.086;2022-11-15T02:44:19;12.60;99.90
7790;DHT22;3939;57.130;-2.086;2022-11-15T02:46:56;12.50;99.90
7790;DHT22;3939;57.130;-2.086;2022-11-15T02:49:47;12.50;99.90
7790;DHT22;3939;57.130;-2.086;2022-11-15T02:52:19;12.50;99.90
7790;DHT22;3939;57.130;-2.086;2022-11-15T02:54:58;12.50;99.90
7790;DHT22;3939;57.130;-2.086;2022-11-15T02:57:55;12.50;99.90
7790;DHT22;3939;57.130;-2.086;2022-11-15T03:00:27;12.50;99.90
7790;DHT22;3939;57.130;-2.086;2022-11-15T03:11:22;12.50;99.90
7790;DHT22;3939;57.130;-2.086;2022-11-15T03:16:51;12.40;99.90
7790;DHT22;3939;57.130;-2.086;2022-11-15T03:22:00;12.40;99.90
7790;DHT22;3939;57.130;-2.086;2022-11-15T03:24:29;12.40;99.90
7790;DHT22;3939;57.130;-2.086;2022-11-15T03:26:56;12.40;99.90
7790;DHT22;3939;57.130;-2.086;2022-11-15T03:29:31;12.50;99.90
7790;DHT22;3939;57.130;-2.086;2022-11-15T03:32:02;12.40;99.90
7790;DHT22;3939;57.130;-2.086;2022-11-15T03:34:35;12.50;99.90
7790;DHT22;3939;57.130;-2.086;2022-11-15T03:37:02;12.40;99.90
7790;DHT22;3939;57.130;-2.086;2022-11-15T03:39:29;12.40;99.90
7790;DHT22;3939;57.130;-2.086;2022-11-15T03:44:42;12.30;99.90
7790;DHT22;3939;57.130;-2.086;2022-11-15T03:49:56;12.40;99.90
7790;DHT22;3939;57.130;-2.086;2022-11-15T03:52:23;12.40;99.90
7790;DHT22;3939;57.130;-2.086;2022-11-15T03:55:00;12.30;99.90
7790;DHT22;3939;57.130;-2.086;2022-11-15T03:57:27;12.20;99.90
7790;DHT22;3939;57.130;-2.086;2022-11-15T03:59:53;12.20;99.90
7790;DHT22;3939;57.130;-2.086;2022-11-15T04:02:19;12.10;99.90
7790;DHT22;3939;57.130;-2.086;2022-11-15T04:04:44;12.00;99.90
7790;DHT22;3939;57.130;-2.086;2022-11-15T04:07:10;12.00;99.90
7790;DHT22;3939;57.130;-2.086;2022-11-15T04:09:36;12.00;99.90
7790;DHT22;3939;57.130;-2.086;2022-11-15T04:12:24;12.00;99.90
7790;DHT22;3939;57.130;-2.086;2022-11-15T04:15:05;12.00;99.90
7790;DHT22;3939;57.130;-2.086;2022-11-15T04:17:43;11.90;99.90
7790;DHT22;3939;57.130;-2.086;2022-11-15T04:20:30;11.90;99.90
7790;DHT22;3939;57.130;-2.086;2022-11-15T04:23:22;11.80;99.90
7790;DHT22;3939;57.130;-2.086;2022-11-15T04:26:15;11.80;99.90
7790;DHT22;3939;57.130;-2.086;2022-11-15T04:28:41;11.70;99.90
7790;DHT22;3939;57.130;-2.086;2022-11-15T04:31:26;11.70;99.90
7790;DHT22;3939;57.130;-2.086;2022-11-15T04:33:53;11.60;99.90
7790;DHT22;3939;57.130;-2.086;2022-11-15T04:36:19;11.60;99.90
7790;DHT22;3939;57.130;-2.086;2022-11-15T04:39:03;11.60;99.90
7790;DHT22;3939;57.130;-2.086;2022-11-15T04:41:29;11.50;99.90
7790;DHT22;3939;57.130;-2.086;2022-11-15T04:43:55;11.50;99.90
7790;DHT22;3939;57.130;-2.086;2022-11-15T04:46:22;11.60;99.90
7790;DHT22;3939;57.130;-2.086;2022-11-15T04:48:47;11.60;99.90
7790;DHT22;3939;57.130;-2.086;2022-11-15T04:51:13;11.60;99.90
7790;DHT22;3939;57.130;-2.086;2022-11-15T04:53:39;11.60;99.90
7790;DHT22;3939;57.130;-2.086;2022-11-15T04:56:04;11.60;99.90
7790;DHT22;3939;57.130;-2.086;2022-11-15T04:58:30;11.60;99.90
7790;DHT22;3939;57.130;-2.086;2022-11-15T05:00:56;11.60;99.90
7790;DHT22;3939;57.130;-2.086;2022-11-15T05:03:21;11.60;99.90
7790;DHT22;3939;57.130;-2.086;2022-11-15T05:06:06;11.60;99.90
7790;DHT22;3939;57.130;-2.086;2022-11-15T05:08:32;11.60;99.90
7790;DHT22;3939;57.130;-2.086;2022-11-15T05:10:57;11.60;99.90
7790;DHT22;3939;57.130;-2.086;2022-11-15T05:13:23;11.60;99.90
7790;DHT22;3939;57.130;-2.086;2022-11-15T05:15:49;11.60;99.90
7790;DHT22;3939;57.130;-2.086;2022-11-15T05:18:14;11.60;99.90
7790;DHT22;3939;57.130;-2.086;2022-11-15T05:20:40;11.60;99.90
7790;DHT22;3939;57.130;-2.086;2022-11-15T05:23:06;11.60;99.90
7790;DHT22;3939;57.130;-2.086;2022-11-15T05:25:32;11.70;99.90
7790;DHT22;3939;57.130;-2.086;2022-11-15T05:27:57;11.70;99.90
7790;DHT22;3939;57.130;-2.086;2022-11-15T05:30:23;11.70;99.90
7790;DHT22;3939;57.130;-2.086;2022-11-15T05:32:49;11.80;99.90
7790;DHT22;3939;57.130;-2.086;2022-11-15T05:35:40;11.90;99.90
7790;DHT22;3939;57.130;-2.086;2022-11-15T05:38:07;11.90;99.90
7790;DHT22;3939;57.130;-2.086;2022-11-15T05:40:33;11.90;99.90
7790;DHT22;3939;57.130;-2.086;2022-11-15T05:43:00;12.00;99.90
7790;DHT22;3939;57.130;-2.086;2022-11-15T05:45:27;12.00;99.90
7790;DHT22;3939;57.130;-2.086;2022-11-15T05:47:56;12.10;99.90
7790;DHT22;3939;57.130;-2.086;2022-11-15T05:50:22;12.10;99.90
7790;DHT22;3939;57.130;-2.086;2022-11-15T05:52:48;12.10;99.90
7790;DHT22;3939;57.130;-2.086;2022-11-15T05:55:14;12.20;99.90
7790;DHT22;3939;57.130;-2.086;2022-11-15T05:57:40;12.20;99.90
7790;DHT22;3939;57.130;-2.086;2022-11-15T06:00:07;12.30;99.90
7790;DHT22;3939;57.130;-2.086;2022-11-15T06:02:34;12.30;99.90
7790;DHT22;3939;57.130;-2.086;2022-11-15T06:05:00;12.30;99.90
7790;DHT22;3939;57.130;-2.086;2022-11-15T06:07:26;12.30;99.90
7790;DHT22;3939;57.130;-2.086;2022-11-15T06:09:51;12.40;99.90
7790;DHT22;3939;57.130;-2.086;2022-11-15T06:12:20;12.30;99.90
7790;DHT22;3939;57.130;-2.086;2022-11-15T06:14:45;12.40;99.90
7790;DHT22;3939;57.130;-2.086;2022-11-15T06:17:11;12.40;99.90
7790;DHT22;3939;57.130;-2.086;2022-11-15T06:19:37;12.40;99.90
7790;DHT22;3939;57.130;-2.086;2022-11-15T06:22:02;12.50;99.90
7790;DHT22;3939;57.130;-2.086;2022-11-15T06:24:28;12.50;99.90
7790;DHT22;3939;57.130;-2.086;2022-11-15T06:26:54;12.50;99.90
7790;DHT22;3939;57.130;-2.086;2022-11-15T06:29:19;12.50;99.90
7790;DHT22;3939;57.130;-2.086;2022-11-15T06:31:45;12.50;99.90
7790;DHT22;3939;57.130;-2.086;2022-11-15T06:34:11;12.50;99.90
7790;DHT22;3939;57.130;-2.086;2022-11-15T06:36:37;12.50;99.90
7790;DHT22;3939;57.130;-2.086;2022-11-15T06:39:04;12.50;99.90
7790;DHT22;3939;57.130;-2.086;2022-11-15T06:41:30;12.50;99.90
7790;DHT22;3939;57.130;-2.086;2022-11-15T06:43:56;12.50;99.90
7790;DHT22;3939;57.130;-2.086;2022-11-15T06:46:22;12.60;99.90
7790;DHT22;3939;57.130;-2.086;2022-11-15T06:48:51;12.60;99.90
7790;DHT22;3939;57.130;-2.086;2022-11-15T06:51:16;12.60;99.90
7790;DHT22;3939;57.130;-2.086;2022-11-15T06:53:42;12.60;99.90
7790;DHT22;3939;57.130;-2.086;2022-11-15T06:56:08;12.70;99.90
7790;DHT22;3939;57.130;-2.086;2022-11-15T06:58:35;12.70;99.90
7790;DHT22;3939;57.130;-2.086;2022-11-15T07:01:05;12.70;99.90
7790;DHT22;3939;57.130;-2.086;2022-11-15T07:03:31;12.70;99.90
7790;DHT22;3939;57.130;-2.086;2022-11-15T07:05:58;12.70;99.90
7790;DHT22;3939;57.130;-2.086;2022-11-15T07:08:26;12.60;99.90
7790;DHT22;3939;57.130;-2.086;2022-11-15T07:10:52;12.60;99.90
7790;DHT22;3939;57.130;-2.086;2022-11-15T07:13:17;12.60;99.90
7790;DHT22;3939;57.130;-2.086;2022-11-15T07:15:43;12.70;99.90
7790;DHT22;3939;57.130;-2.086;2022-11-15T07:18:09;12.60;99.90
7790;DHT22;3939;57.130;-2.086;2022-11-15T07:20:35;12.60;99.90
7790;DHT22;3939;57.130;-2.086;2022-11-15T07:23:02;12.60;99.90
7790;DHT22;3939;57.130;-2.086;2022-11-15T07:25:28;12.70;99.90
7790;DHT22;3939;57.130;-2.086;2022-11-15T07:27:58;12.70;99.90
7790;DHT22;3939;57.130;-2.086;2022-11-15T07:30:24;12.70;99.90
7790;DHT22;3939;57.130;-2.086;2022-11-15T07:33:09;12.60;99.90
7790;DHT22;3939;57.130;-2.086;2022-11-15T07:35:34;12.60;99.90
7790;DHT22;3939;57.130;-2.086;2022-11-15T07:38:01;12.70;99.90
7790;DHT22;3939;57.130;-2.086;2022-11-15T07:40:29;12.60;99.90
7790;DHT22;3939;57.130;-2.086;2022-11-15T07:43:00;12.60;99.90
7790;DHT22;3939;57.130;-2.086;2022-11-15T07:45:25;12.60;99.90
7790;DHT22;3939;57.130;-2.086;2022-11-15T07:47:51;12.60;99.90
7790;DHT22;3939;57.130;-2.086;2022-11-15T07:50:18;12.60;99.90
7790;DHT22;3939;57.130;-2.086;2022-11-15T07:52:44;12.60;99.90
7790;DHT22;3939;57.130;-2.086;2022-11-15T07:55:10;12.70;99.90
7790;DHT22;3939;57.130;-2.086;2022-11-15T07:57:36;12.70;99.90
7790;DHT22;3939;57.130;-2.086;2022-11-15T08:00:06;12.60;99.90
7790;DHT22;3939;57.130;-2.086;2022-11-15T08:02:32;12.70;99.90
7790;DHT22;3939;57.130;-2.086;2022-11-15T08:04:57;12.70;99.90
7790;DHT22;3939;57.130;-2.086;2022-11-15T08:07:24;12.70;99.90
7790;DHT22;3939;57.130;-2.086;2022-11-15T08:09:50;12.70;99.90
7790;DHT22;3939;57.130;-2.086;2022-11-15T08:12:15;12.70;99.90
7790;DHT22;3939;57.130;-2.086;2022-11-15T08:14:41;12.70;99.90
7790;DHT22;3939;57.130;-2.086;2022-11-15T08:17:07;12.60;99.90
7790;DHT22;3939;57.130;-2.086;2022-11-15T08:19:33;12.70;99.90
7790;DHT22;3939;57.130;-2.086;2022-11-15T08:21:58;12.70;99.90
7790;DHT22;3939;57.130;-2.086;2022-11-15T08:24:24;12.70;99.90
7790;DHT22;3939;57.130;-2.086;2022-11-15T08:26:50;12.70;99.90
7790;DHT22;3939;57.130;-2.086;2022-11-15T08:29:16;12.70;99.90
7790;DHT22;3939;57.130;-2.086;2022-11-15T08:31:42;12.70;99.90
7790;DHT22;3939;57.130;-2.086;2022-11-15T08:34:07;12.70;99.90
7790;DHT22;3939;57.130;-2.086;2022-11-15T08:36:33;12.70;99.90
7790;DHT22;3939;57.130;-2.086;2022-11-15T08:38:59;12.60;99.90
7790;DHT22;3939;57.130;-2.086;2022-11-15T08:41:28;12.50;99.90
7790;DHT22;3939;57.130;-2.086;2022-11-15T08:43:55;12.40;99.90
7790;DHT22;3939;57.130;-2.086;2022-11-15T08:46:21;12.30;99.90
7790;DHT22;3939;57.130;-2.086;2022-11-15T08:48:46;12.20;99.90
7790;DHT22;3939;57.130;-2.086;2022-11-15T08:51:12;12.20;99.90
7790;DHT22;3939;57.130;-2.086;2022-11-15T08:53:38;12.10;99.90
7790;DHT22;3939;57.130;-2.086;2022-11-15T08:56:26;12.00;99.90
7790;DHT22;3939;57.130;-2.086;2022-11-15T08:58:52;12.00;99.90
7790;DHT22;3939;57.130;-2.086;2022-11-15T09:01:21;11.90;99.90
7790;DHT22;3939;57.130;-2.086;2022-11-15T09:03:47;11.90;99.90
7790;DHT22;3939;57.130;-2.086;2022-11-15T09:06:13;11.90;99.90
7790;DHT22;3939;57.130;-2.086;2022-11-15T09:08:39;11.90;99.90
7790;DHT22;3939;57.130;-2.086;2022-11-15T09:11:06;11.80;99.90
7790;DHT22;3939;57.130;-2.086;2022-11-15T09:13:33;11.80;99.90
7790;DHT22;3939;57.130;-2.086;2022-11-15T09:16:00;11.80;99.90
7790;DHT22;3939;57.130;-2.086;2022-11-15T09:18:26;11.80;99.90
7790;DHT22;3939;57.130;-2.086;2022-11-15T09:20:55;11.80;99.90
7790;DHT22;3939;57.130;-2.086;2022-11-15T09:23:22;11.80;99.90
7790;DHT22;3939;57.130;-2.086;2022-11-15T09:25:48;11.80;99.90
7790;DHT22;3939;57.130;-2.086;2022-11-15T09:28:13;11.80;99.90
7790;DHT22;3939;57.130;-2.086;2022-11-15T09:30:39;11.80;99.90
7790;DHT22;3939;57.130;-2.086;2022-11-15T09:33:11;11.90;99.90
7790;DHT22;3939;57.130;-2.086;2022-11-15T09:35:37;11.90;99.90
7790;DHT22;3939;57.130;-2.086;2022-11-15T09:38:04;11.90;99.90
7790;DHT22;3939;57.130;-2.086;2022-11-15T09:40:31;11.90;99.90
7790;DHT22;3939;57.130;-2.086;2022-11-15T09:50:57;12.10;99.90
7790;DHT22;3939;57.130;-2.086;2022-11-15T09:53:47;12.20;99.90
7790;DHT22;3939;57.130;-2.086;2022-11-15T09:56:20;12.20;99.90
7790;DHT22;3939;57.130;-2.086;2022-11-15T10:01:34;12.20;99.90
7790;DHT22;3939;57.130;-2.086;2022-11-15T10:04:01;12.20;99.90
7790;DHT22;3939;57.130;-2.086;2022-11-15T10:06:27;12.20;99.90
7790;DHT22;3939;57.130;-2.086;2022-11-15T10:09:01;12.20;99.90
7790;DHT22;3939;57.130;-2.086;2022-11-15T10:11:31;12.30;99.90
7790;DHT22;3939;57.130;-2.086;2022-11-15T10:14:10;12.30;99.90
7790;DHT22;3939;57.130;-2.086;2022-11-15T10:20:11;12.30;99.90
7790;DHT22;3939;57.130;-2.086;2022-11-15T10:25:30;12.40;99.90
7790;DHT22;3939;57.130;-2.086;2022-11-15T10:28:42;12.40;99.90
7790;DHT22;3939;57.130;-2.086;2022-11-15T10:31:01;12.40;99.90
7790;DHT22;3939;57.130;-2.086;2022-11-15T10:33:35;12.50;99.90
7790;DHT22;3939;57.130;-2.086;2022-11-15T10:36:17;12.50;99.90
7790;DHT22;3939;57.130;-2.086;2022-11-15T10:41:17;12.50;99.90
7790;DHT22;3939;57.130;-2.086;2022-11-15T10:43:43;12.50;99.90
7790;DHT22;3939;57.130;-2.086;2022-11-15T10:46:23;12.50;99.90
7790;DHT22;3939;57.130;-2.086;2022-11-15T10:49:15;12.50;99.90
7790;DHT22;3939;57.130;-2.086;2022-11-15T10:54:10;12.40;99.90
7790;DHT22;3939;57.130;-2.086;2022-11-15T10:56:39;12.30;99.90
7790;DHT22;3939;57.130;-2.086;2022-11-15T10:59:18;12.20;99.90
7790;DHT22;3939;57.130;-2.086;2022-11-15T11:01:46;12.20;99.90
7790;DHT22;3939;57.130;-2.086;2022-11-15T11:04:12;12.20;99.90
7790;DHT22;3939;57.130;-2.086;2022-11-15T11:09:33;12.10;99.90
7790;DHT22;3939;57.130;-2.086;2022-11-15T11:12:00;12.10;99.90
7790;DHT22;3939;57.130;-2.086;2022-11-15T11:14:30;12.10;99.90
7790;DHT22;3939;57.130;-2.086;2022-11-15T11:17:46;12.10;99.90
7790;DHT22;3939;57.130;-2.086;2022-11-15T11:19:56;12.10;99.90
7790;DHT22;3939;57.130;-2.086;2022-11-15T11:24:56;12.20;99.90
7790;DHT22;3939;57.130;-2.086;2022-11-15T11:27:57;12.20;99.90
7790;DHT22;3939;57.130;-2.086;2022-11-15T11:33:22;12.30;99.90
7790;DHT22;3939;57.130;-2.086;2022-11-15T11:43:58;12.40;99.90
7790;DHT22;3939;57.130;-2.086;2022-11-15T11:46:47;12.40;99.90
7790;DHT22;3939;57.130;-2.086;2022-11-15T11:49:31;12.40;99.90
7790;DHT22;3939;57.130;-2.086;2022-11-15T11:52:12;12.30;99.90
7790;DHT22;3939;57.130;-2.086;2022-11-15T11:57:48;12.10;99.90
7790;DHT22;3939;57.130;-2.086;2022-11-15T12:00:24;12.10;99.90
7790;DHT22;3939;57.130;-2.086;2022-11-15T12:03:02;12.10;99.90
7790;DHT22;3939;57.130;-2.086;2022-11-15T12:05:46;12.10;99.90
7790;DHT22;3939;57.130;-2.086;2022-11-15T12:11:23;12.40;99.90
7790;DHT22;3939;57.130;-2.086;2022-11-15T12:13:59;12.50;99.90
7790;DHT22;3939;57.130;-2.086;2022-11-15T12:16:31;12.60;99.90
7790;DHT22;3939;57.130;-2.086;2022-11-15T12:19:03;12.70;99.90
7790;DHT22;3939;57.130;-2.086;2022-11-15T12:21:45;12.80;99.90
7790;DHT22;3939;57.130;-2.086;2022-11-15T12:24:21;12.90;99.90
7790;DHT22;3939;57.130;-2.086;2022-11-15T12:26:57;13.00;99.90
7790;DHT22;3939;57.130;-2.086;2022-11-15T12:31:55;13.10;99.90
7790;DHT22;3939;57.130;-2.086;2022-11-15T12:36:49;13.10;99.90
7790;DHT22;3939;57.130;-2.086;2022-11-15T12:39:16;13.10;99.90
7790;DHT22;3939;57.130;-2.086;2022-11-15T12:41:44;13.10;99.90
7790;DHT22;3939;57.130;-2.086;2022-11-15T12:46:59;12.90;99.90
7790;DHT22;3939;57.130;-2.086;2022-11-15T12:59:58;12.50;99.90
7790;DHT22;3939;57.130;-2.086;2022-11-15T13:02:43;12.50;99.90
7790;DHT22;3939;57.130;-2.086;2022-11-15T13:17:53;12.40;99.90
7790;DHT22;3939;57.130;-2.086;2022-11-15T13:28:00;12.50;99.90
7790;DHT22;3939;57.130;-2.086;2022-11-15T13:30:30;12.50;99.90
7790;DHT22;3939;57.130;-2.086;2022-11-15T13:33:00;12.50;99.90
7790;DHT22;3939;57.130;-2.086;2022-11-15T13:35:33;12.50;99.90
7790;DHT22;3939;57.130;-2.086;2022-11-15T13:38:04;12.60;99.90
7790;DHT22;3939;57.130;-2.086;2022-11-15T13:40:35;12.60;99.90
7790;DHT22;3939;57.130;-2.086;2022-11-15T13:48:36;12.60;99.90
7790;DHT22;3939;57.130;-2.086;2022-11-15T13:51:09;12.60;99.90
7790;DHT22;3939;57.130;-2.086;2022-11-15T13:53:38;12.50;99.90
7790;DHT22;3939;57.130;-2.086;2022-11-15T13:56:06;12.50;99.90
7790;DHT22;3939;57.130;-2.086;2022-11-15T13:58:32;12.40;99.90
7790;DHT22;3939;57.130;-2.086;2022-11-15T14:01:04;12.50;99.90
7790;DHT22;3939;57.130;-2.086;2022-11-15T14:03:35;12.50;99.90
7790;DHT22;3939;57.130;-2.086;2022-11-15T14:06:17;12.40;99.90
7790;DHT22;3939;57.130;-2.086;2022-11-15T14:11:36;12.30;99.90
7790;DHT22;3939;57.130;-2.086;2022-11-15T14:16:44;12.20;99.90
7790;DHT22;3939;57.130;-2.086;2022-11-15T14:24:43;12.10;99.90
7790;DHT22;3939;57.130;-2.086;2022-11-15T14:27:25;12.00;99.90
7790;DHT22;3939;57.130;-2.086;2022-11-15T14:29:52;12.00;99.90
7790;DHT22;3939;57.130;-2.086;2022-11-15T14:32:28;11.90;99.90
7790;DHT22;3939;57.130;-2.086;2022-11-15T14:35:02;11.90;99.90
7790;DHT22;3939;57.130;-2.086;2022-11-15T14:37:32;11.80;99.90
7790;DHT22;3939;57.130;-2.086;2022-11-15T14:40:02;11.80;99.90
7790;DHT22;3939;57.130;-2.086;2022-11-15T14:42:28;11.80;99.90
7790;DHT22;3939;57.130;-2.086;2022-11-15T14:44:54;11.80;99.90
7790;DHT22;3939;57.130;-2.086;2022-11-15T14:47:19;11.80;99.90
7790;DHT22;3939;57.130;-2.086;2022-11-15T14:49:48;11.80;99.90
7790;DHT22;3939;57.130;-2.086;2022-11-15T14:52:27;11.80;99.90
7790;DHT22;3939;57.130;-2.086;2022-11-15T14:54:54;11.80;99.90
7790;DHT22;3939;57.130;-2.086;2022-11-15T14:57:20;11.80;99.90
7790;DHT22;3939;57.130;-2.086;2022-11-15T14:59:46;11.80;99.90
7790;DHT22;3939;57.130;-2.086;2022-11-15T15:02:20;11.80;99.90
7790;DHT22;3939;57.130;-2.086;2022-11-15T15:04:49;11.80;99.90
7790;DHT22;3939;57.130;-2.086;2022-11-15T15:07:15;11.80;99.90
7790;DHT22;3939;57.130;-2.086;2022-11-15T15:09:41;11.80;99.90
7790;DHT22;3939;57.130;-2.086;2022-11-15T15:12:25;11.80;99.90
7790;DHT22;3939;57.130;-2.086;2022-11-15T15:14:51;11.80;99.90
7790;DHT22;3939;57.130;-2.086;2022-11-15T15:17:17;11.80;99.90
7790;DHT22;3939;57.130;-2.086;2022-11-15T15:19:43;11.80;99.90
7790;DHT22;3939;57.130;-2.086;2022-11-15T15:22:17;11.80;99.90
7790;DHT22;3939;57.130;-2.086;2022-11-15T15:24:44;11.70;99.90
7790;DHT22;3939;57.130;-2.086;2022-11-15T15:27:11;11.70;99.90
7790;DHT22;3939;57.130;-2.086;2022-11-15T15:29:37;11.70;99.90
7790;DHT22;3939;57.130;-2.086;2022-11-15T15:32:03;11.60;99.90
7790;DHT22;3939;57.130;-2.086;2022-11-15T15:34:29;11.70;99.90
7790;DHT22;3939;57.130;-2.086;2022-11-15T15:37:26;11.60;99.90
7790;DHT22;3939;57.130;-2.086;2022-11-15T15:39:55;11.60;99.90
7790;DHT22;3939;57.130;-2.086;2022-11-15T15:42:22;11.70;99.90
7790;DHT22;3939;57.130;-2.086;2022-11-15T15:44:49;11.70;99.90
7790;DHT22;3939;57.130;-2.086;2022-11-15T15:47:22;11.70;99.90
7790;DHT22;3939;57.130;-2.086;2022-11-15T15:49:49;11.70;99.90
7790;DHT22;3939;57.130;-2.086;2022-11-15T15:52:16;11.70;99.90
7790;DHT22;3939;57.130;-2.086;2022-11-15T15:54:42;11.70;99.90
7790;DHT22;3939;57.130;-2.086;2022-11-15T15:57:08;11.70;99.90
7790;DHT22;3939;57.130;-2.086;2022-11-15T15:59:36;11.80;99.90
7790;DHT22;3939;57.130;-2.086;2022-11-15T16:02:02;11.80;99.90
7790;DHT22;3939;57.130;-2.086;2022-11-15T16:04:30;11.80;99.90
7790;DHT22;3939;57.130;-2.086;2022-11-15T16:07:00;11.80;99.90
7790;DHT22;3939;57.130;-2.086;2022-11-15T16:09:26;11.90;99.90
7790;DHT22;3939;57.130;-2.086;2022-11-15T16:12:10;11.90;99.90
7790;DHT22;3939;57.130;-2.086;2022-11-15T16:14:36;11.90;99.90
7790;DHT22;3939;57.130;-2.086;2022-11-15T16:17:02;11.90;99.90
7790;DHT22;3939;57.130;-2.086;2022-11-15T16:19:29;12.00;99.90
7790;DHT22;3939;57.130;-2.086;2022-11-15T16:21:55;12.00;99.90
7790;DHT22;3939;57.130;-2.086;2022-11-15T16:24:21;12.10;99.90
7790;DHT22;3939;57.130;-2.086;2022-11-15T16:26:50;12.10;99.90
7790;DHT22;3939;57.130;-2.086;2022-11-15T16:29:19;12.10;99.90
7790;DHT22;3939;57.130;-2.086;2022-11-15T16:31:44;12.00;99.90
7790;DHT22;3939;57.130;-2.086;2022-11-15T16:34:10;12.10;99.90
7790;DHT22;3939;57.130;-2.086;2022-11-15T16:36:36;12.10;99.90
7790;DHT22;3939;57.130;-2.086;2022-11-15T16:39:02;12.10;99.90
7790;DHT22;3939;57.130;-2.086;2022-11-15T16:41:32;12.10;99.90
7790;DHT22;3939;57.130;-2.086;2022-11-15T16:43:57;12.20;99.90
7790;DHT22;3939;57.130;-2.086;2022-11-15T16:46:25;12.10;99.90
7790;DHT22;3939;57.130;-2.086;2022-11-15T16:48:51;12.10;99.90
7790;DHT22;3939;57.130;-2.086;2022-11-15T16:51:19;12.10;99.90
7790;DHT22;3939;57.130;-2.086;2022-11-15T16:53:44;12.10;99.90
7790;DHT22;3939;57.130;-2.086;2022-11-15T16:56:20;12.10;99.90
7790;DHT22;3939;57.130;-2.086;2022-11-15T16:58:47;12.10;99.90
7790;DHT22;3939;57.130;-2.086;2022-11-15T17:01:18;12.10;99.90
7790;DHT22;3939;57.130;-2.086;2022-11-15T17:03:44;12.10;99.90
7790;DHT22;3939;57.130;-2.086;2022-11-15T17:06:11;12.00;99.90
7790;DHT22;3939;57.130;-2.086;2022-11-15T17:08:37;12.00;99.90
7790;DHT22;3939;57.130;-2.086;2022-11-15T17:11:07;12.10;99.90
7790;DHT22;3939;57.130;-2.086;2022-11-15T17:13:33;12.10;99.90
7790;DHT22;3939;57.130;-2.086;2022-11-15T17:16:10;12.10;99.90
7790;DHT22;3939;57.130;-2.086;2022-11-15T17:18:36;12.10;99.90
7790;DHT22;3939;57.130;-2.086;2022-11-15T17:21:21;12.10;99.90
7790;DHT22;3939;57.130;-2.086;2022-11-15T17:23:50;12.20;99.90
7790;DHT22;3939;57.130;-2.086;2022-11-15T17:26:15;12.20;99.90
7790;DHT22;3939;57.130;-2.086;2022-11-15T17:28:53;12.10;99.90
7790;DHT22;3939;57.130;-2.086;2022-11-15T17:31:19;12.10;99.90
7790;DHT22;3939;57.130;-2.086;2022-11-15T17:33:45;12.10;99.90
7790;DHT22;3939;57.130;-2.086;2022-11-15T17:36:11;12.10;99.90
7790;DHT22;3939;57.130;-2.086;2022-11-15T17:38:37;12.20;99.90
7790;DHT22;3939;57.130;-2.086;2022-11-15T17:41:11;12.20;99.90
7790;DHT22;3939;57.130;-2.086;2022-11-15T17:43:37;12.30;99.90
7790;DHT22;3939;57.130;-2.086;2022-11-15T17:46:15;12.20;99.90
7790;DHT22;3939;57.130;-2.086;2022-11-15T17:48:42;12.20;99.90
7790;DHT22;3939;57.130;-2.086;2022-11-15T17:51:11;12.30;99.90
7790;DHT22;3939;57.130;-2.086;2022-11-15T17:53:40;12.20;99.90
7790;DHT22;3939;57.130;-2.086;2022-11-15T17:56:15;12.30;99.90
7790;DHT22;3939;57.130;-2.086;2022-11-15T17:58:41;12.20;99.90
7790;DHT22;3939;57.130;-2.086;2022-11-15T18:01:19;12.30;99.90
7790;DHT22;3939;57.130;-2.086;2022-11-15T18:03:48;12.30;99.90
7790;DHT22;3939;57.130;-2.086;2022-11-15T18:06:15;12.30;99.90
7790;DHT22;3939;57.130;-2.086;2022-11-15T18:08:46;12.30;99.90
7790;DHT22;3939;57.130;-2.086;2022-11-15T18:11:17;12.30;99.90
7790;DHT22;3939;57.130;-2.086;2022-11-15T18:13:44;12.30;99.90